createdAt,value
2022-12-06T00:02:23.022Z,13.43
2022-12-06T00:05:25.403Z,15.25
2022-12-06T00:08:27.694Z,17.98
2022-12-06T00:11:31.871Z,13.88
2022-12-06T00:14:34.199Z,13.05
2022-12-06T00:17:42.919Z,13.75
2022-12-06T00:20:45.531Z,12.52
2022-12-06T00:23:49.362Z,12.82
2022-12-06T00:26:51.897Z,10.63
2022-12-06T00:29:54.240Z,13.75
2022-12-06T00:32:57.885Z,11.77
2022-12-06T00:36:01.774Z,15.25
2022-12-06T00:39:05.991Z,14.07
2022-12-06T00:42:08.299Z,15.02
2022-12-06T00:45:10.997Z,15.05
2022-12-06T00:48:14.726Z,11.10
2022-12-06T00:51:18.040Z,14.32
2022-12-06T00:54:20.389Z,13.50
2022-12-06T00:57:22.650Z,12.20
2022-12-06T01:00:24.903Z,16.73
2022-12-06T01:03:33.586Z,13.80
2022-12-06T01:06:37.873Z,12.88
2022-12-06T01:09:40.134Z,14.93
2022-12-06T01:12:42.491Z,15.50
2022-12-06T01:15:44.737Z,13.32
2022-12-06T01:18:52.484Z,14.23
2022-12-06T01:21:54.816Z,16.55
2022-12-06T01:24:57.156Z,16.63
2022-12-06T01:27:59.730Z,15.93
2022-12-06T01:31:06.942Z,15.65
2022-12-06T01:34:15.391Z,18.38
2022-12-06T01:37:17.690Z,14.70
2022-12-06T01:40:20.006Z,19.55
2022-12-06T01:43:37.927Z,21.77
2022-12-06T01:46:42.604Z,16.58
2022-12-06T01:49:49.323Z,20.55
2022-12-06T01:52:54.496Z,18.08
2022-12-06T01:55:56.815Z,22.33
2022-12-06T01:58:59.744Z,21.77
2022-12-06T02:02:02.364Z,22.25
2022-12-06T02:05:08.236Z,22.55
2022-12-06T02:08:11.260Z,21.40
2022-12-06T02:11:13.737Z,20.25
2022-12-06T02:14:18.373Z,22.17
2022-12-06T02:17:34.677Z,22.23
2022-12-06T02:20:41.962Z,19.65
2022-12-06T02:24:02.490Z,20.08
2022-12-06T02:27:17.665Z,26.23
2022-12-06T02:30:35.864Z,21.27
2022-12-06T02:33:43.564Z,23.20
2022-12-06T02:36:49.720Z,19.40
2022-12-06T02:39:55.767Z,21.58
2022-12-06T02:43:01.018Z,19.83
2022-12-06T02:46:06.166Z,24.67
2022-12-06T02:49:18.399Z,17.42
2022-12-06T02:52:24.347Z,20.40
2022-12-06T02:55:27.551Z,18.48
2022-12-06T02:58:34.367Z,16.83
2022-12-06T03:01:41.401Z,18.25
2022-12-06T03:04:53.801Z,18.08
2022-12-06T03:07:58.887Z,18.95
2022-12-06T03:11:02.731Z,23.08
2022-12-06T03:14:08.299Z,21.45
2022-12-06T03:17:17.048Z,18.30
2022-12-06T03:20:24.270Z,21.05
2022-12-06T03:23:30.673Z,19.35
2022-12-06T03:26:34.499Z,20.77
2022-12-06T03:29:40.995Z,20.45
2022-12-06T03:32:47.432Z,21.67
2022-12-06T03:35:50.833Z,22.83
2022-12-06T03:38:54.571Z,20.15
2022-12-06T03:41:58.189Z,21.73
2022-12-06T03:45:01.170Z,23.88
2022-12-06T03:48:09.535Z,23.55
2022-12-06T03:51:15.681Z,24.23
2022-12-06T03:54:18.267Z,23.80
2022-12-06T03:57:20.609Z,22.65
2022-12-06T04:00:22.924Z,24.98
2022-12-06T04:03:26.683Z,26.75
2022-12-06T04:06:29.044Z,27.95
2022-12-06T04:09:50.128Z,27.13
2022-12-06T04:13:01.221Z,29.35
2022-12-06T04:16:04.271Z,29.00
2022-12-06T04:19:08.061Z,28.20
2022-12-06T04:22:29.023Z,28.05
2022-12-06T04:25:32.237Z,31.08
2022-12-06T04:28:53.201Z,28.05
2022-12-06T04:32:13.841Z,32.55
2022-12-06T04:35:36.395Z,29.42
2022-12-06T04:38:42.282Z,30.75
2022-12-06T04:42:03.354Z,26.92
2022-12-06T04:45:06.572Z,30.75
2022-12-06T04:48:11.080Z,33.83
2022-12-06T04:51:14.860Z,31.95
2022-12-06T04:54:19.749Z,26.38
2022-12-06T04:57:22.135Z,29.45
2022-12-06T05:00:25.050Z,30.38
2022-12-06T05:03:28.072Z,28.13
2022-12-06T05:06:31.853Z,32.70
2022-12-06T05:09:34.228Z,25.38
2022-12-06T05:12:36.570Z,31.75
2022-12-06T05:15:38.957Z,28.98
2022-12-06T05:18:41.288Z,28.00
2022-12-06T05:21:44.955Z,29.27
2022-12-06T05:24:47.174Z,29.20
2022-12-06T05:27:49.504Z,24.30
2022-12-06T05:30:51.800Z,31.60
2022-12-06T05:33:54.329Z,27.73
2022-12-06T05:36:57.969Z,26.45
2022-12-06T05:40:00.612Z,26.13
2022-12-06T05:43:03.024Z,27.85
2022-12-06T05:46:05.626Z,26.30
2022-12-06T05:49:08.072Z,26.23
2022-12-06T05:52:12.171Z,23.38
2022-12-06T05:55:14.610Z,25.48
2022-12-06T05:58:18.066Z,26.65
2022-12-06T06:01:20.324Z,23.42
2022-12-06T06:04:22.831Z,21.00
2022-12-06T06:07:26.465Z,26.58
2022-12-06T06:10:28.796Z,24.80
2022-12-06T06:13:31.077Z,20.10
2022-12-06T06:16:34.239Z,28.52
2022-12-06T06:19:36.635Z,30.23
2022-12-06T06:22:41.821Z,26.52
2022-12-06T06:25:44.134Z,25.95
2022-12-06T06:28:46.478Z,24.23
2022-12-06T06:31:48.850Z,24.85
2022-12-06T06:34:51.532Z,25.42
2022-12-06T06:37:55.153Z,23.40
2022-12-06T06:41:00.953Z,24.95
2022-12-06T06:44:03.348Z,24.98
2022-12-06T06:47:06.093Z,24.50
2022-12-06T06:50:09.146Z,24.48
2022-12-06T06:53:12.839Z,28.58
2022-12-06T06:56:15.121Z,25.92
2022-12-06T06:59:17.633Z,22.50
2022-12-06T07:02:20.182Z,23.25
2022-12-06T07:05:22.559Z,28.35
2022-12-06T07:08:27.532Z,26.30
2022-12-06T07:11:29.861Z,26.08
2022-12-06T07:14:34.099Z,23.95
2022-12-06T07:17:36.468Z,26.08
2022-12-06T07:20:38.729Z,23.83
2022-12-06T07:23:42.612Z,29.17
2022-12-06T07:26:45.044Z,27.15
2022-12-06T07:29:47.309Z,29.05
2022-12-06T07:32:49.760Z,26.05
2022-12-06T07:39:16.420Z,30.42
2022-12-06T07:42:37.372Z,28.08
2022-12-06T07:45:39.697Z,34.97
2022-12-06T07:48:42.038Z,29.92
2022-12-06T07:51:44.862Z,31.17
2022-12-06T07:54:48.669Z,25.05
2022-12-06T07:57:50.925Z,32.45
2022-12-06T08:00:53.201Z,29.05
2022-12-06T08:03:56.353Z,27.67
2022-12-06T08:07:00.744Z,27.45
2022-12-06T08:10:05.345Z,32.65
2022-12-06T08:13:07.600Z,26.02
2022-12-06T08:16:15.038Z,26.70
2022-12-06T08:19:17.432Z,26.15
2022-12-06T08:22:19.764Z,31.02
2022-12-06T08:25:23.413Z,28.63
2022-12-06T08:28:25.988Z,30.20
2022-12-06T08:31:29.039Z,24.25
2022-12-06T08:34:31.429Z,28.17
2022-12-06T08:37:34.313Z,26.40
2022-12-06T08:40:37.927Z,25.75
2022-12-06T08:43:40.212Z,26.23
2022-12-06T08:46:44.766Z,29.13
2022-12-06T08:49:47.069Z,24.35
2022-12-06T08:52:49.355Z,25.17
2022-12-06T08:56:02.344Z,29.75
2022-12-06T08:59:05.551Z,26.52
2022-12-06T09:02:10.021Z,25.23
2022-12-06T09:05:12.396Z,29.83
2022-12-06T09:08:14.954Z,28.65
2022-12-06T09:11:19.280Z,25.38
2022-12-06T09:14:22.598Z,24.20
2022-12-06T09:17:24.927Z,29.08
2022-12-06T09:20:27.255Z,26.25
2022-12-06T09:23:29.496Z,24.67
2022-12-06T09:26:33.181Z,26.42
2022-12-06T09:29:40.325Z,26.85
2022-12-06T09:32:44.270Z,24.83
2022-12-06T09:35:46.630Z,28.00
2022-12-06T09:38:52.204Z,23.13
2022-12-06T09:42:21.225Z,30.05
2022-12-06T09:45:32.333Z,28.90
2022-12-06T09:48:49.284Z,27.07
2022-12-06T09:52:11.197Z,26.15
2022-12-06T09:55:21.704Z,24.85
2022-12-06T09:58:36.312Z,29.70
2022-12-06T10:01:57.656Z,26.48
2022-12-06T10:05:23.078Z,23.17
2022-12-06T10:08:36.340Z,22.58
2022-12-06T10:11:52.449Z,21.98
2022-12-06T10:15:08.638Z,18.90
2022-12-06T10:18:21.711Z,18.98
2022-12-06T10:21:28.792Z,20.40
2022-12-06T10:24:41.627Z,16.13
2022-12-06T10:27:50.384Z,20.98
2022-12-06T10:30:56.755Z,21.45
2022-12-06T10:34:05.933Z,16.83
2022-12-06T10:37:15.115Z,19.95
2022-12-06T10:40:22.504Z,17.95
2022-12-06T10:43:29.208Z,17.58
2022-12-06T10:46:55.058Z,18.00
2022-12-06T10:50:03.135Z,14.85
2022-12-06T10:53:11.271Z,15.50
2022-12-06T10:56:17.428Z,15.50
2022-12-06T10:59:30.829Z,19.98
2022-12-06T11:02:40.133Z,11.77
2022-12-06T11:05:45.462Z,15.80
2022-12-06T11:08:51.797Z,15.63
2022-12-06T11:11:57.053Z,13.35
2022-12-06T11:15:04.428Z,13.52
2022-12-06T11:18:14.076Z,12.45
2022-12-06T11:21:30.062Z,14.85
2022-12-06T11:24:37.486Z,15.85
2022-12-06T11:27:44.810Z,14.18
2022-12-06T11:34:55.692Z,11.50
2022-12-06T11:48:01.136Z,10.10
2022-12-06T11:54:54.693Z,13.10
2022-12-06T11:58:27.962Z,10.63
2022-12-06T12:02:06.200Z,10.02
2022-12-06T12:05:42.802Z,12.10
2022-12-06T12:09:01.530Z,10.30
2022-12-06T12:12:11.205Z,12.15
2022-12-06T12:15:30.260Z,10.98
2022-12-06T12:18:49.220Z,11.10
2022-12-06T12:22:33.298Z,9.38
2022-12-06T12:31:30.579Z,13.20
2022-12-06T12:48:28.289Z,9.30
2022-12-06T12:51:35.411Z,10.38
2022-12-06T12:54:38.702Z,10.07
2022-12-06T12:57:41.610Z,8.93
2022-12-06T13:00:48.238Z,11.98
2022-12-06T13:03:57.145Z,9.85
2022-12-06T13:07:02.323Z,7.78
2022-12-06T13:10:09.165Z,10.85
2022-12-06T13:13:15.663Z,11.43
2022-12-06T13:16:23.194Z,5.88
2022-12-06T13:19:32.769Z,9.15
2022-12-06T13:22:45.333Z,8.57
2022-12-06T13:25:50.764Z,7.95
2022-12-06T13:28:57.764Z,7.78
2022-12-06T13:32:06.009Z,8.82
2022-12-06T13:35:19.935Z,8.95
2022-12-06T13:38:27.284Z,7.35
2022-12-06T13:42:12.518Z,9.27
2022-12-06T13:45:45.683Z,6.05
2022-12-06T13:48:50.127Z,7.35
2022-12-06T13:51:56.898Z,6.43
2022-12-06T13:55:47.271Z,5.57
2022-12-06T13:58:55.207Z,6.22
2022-12-06T14:01:59.274Z,7.38
2022-12-06T14:05:19.485Z,7.25
2022-12-06T14:08:27.654Z,8.07
2022-12-06T14:11:38.219Z,6.32
2022-12-06T14:14:55.376Z,6.32
2022-12-06T14:18:06.828Z,7.50
2022-12-06T14:21:22.380Z,9.40
2022-12-06T14:24:29.049Z,7.33
2022-12-06T14:27:43.457Z,7.30
2022-12-06T14:30:46.391Z,7.07
2022-12-06T14:33:49.892Z,5.63
2022-12-06T14:36:57.668Z,5.15
2022-12-06T14:40:22.962Z,5.47
2022-12-06T14:43:27.406Z,8.52
2022-12-06T14:46:30.313Z,7.22
2022-12-06T14:49:53.746Z,6.97
2022-12-06T14:53:04.499Z,7.72
2022-12-06T14:56:23.159Z,8.63
2022-12-06T15:00:12.934Z,8.70
2022-12-06T15:03:02.287Z,8.38
2022-12-06T15:06:18.800Z,11.07
2022-12-06T15:09:22.512Z,7.43
2022-12-06T15:12:47.039Z,9.82
2022-12-06T15:15:59.761Z,10.73
2022-12-06T15:19:02.382Z,6.50
2022-12-06T15:22:16.103Z,9.85
2022-12-06T15:25:21.369Z,6.32
2022-12-06T15:28:26.018Z,11.70
2022-12-06T15:31:30.157Z,7.55
2022-12-06T15:34:37.060Z,7.63
2022-12-06T15:37:42.118Z,7.63
2022-12-06T15:40:49.521Z,7.88
2022-12-06T15:43:58.059Z,11.32
2022-12-06T15:47:02.760Z,9.23
2022-12-06T15:50:06.665Z,8.73
2022-12-06T15:53:12.378Z,9.20
2022-12-06T15:56:16.094Z,8.77
2022-12-06T15:59:20.230Z,7.88
2022-12-06T16:02:22.761Z,7.30
2022-12-06T16:05:25.225Z,8.18
2022-12-06T16:08:27.990Z,8.90
2022-12-06T16:11:30.537Z,8.88
2022-12-06T16:14:34.325Z,11.43
2022-12-06T16:17:36.660Z,8.85
2022-12-06T16:20:41.019Z,11.43
2022-12-06T16:24:17.438Z,6.97
2022-12-06T16:27:19.927Z,8.35
2022-12-06T16:30:32.806Z,11.05
2022-12-06T16:33:35.152Z,10.63
2022-12-06T16:36:59.213Z,11.63
2022-12-06T16:40:01.734Z,11.18
2022-12-06T16:43:04.381Z,14.93
2022-12-06T16:46:22.168Z,10.43
2022-12-06T16:52:48.710Z,12.05
2022-12-06T16:55:51.343Z,13.88
2022-12-06T16:58:54.203Z,12.25
2022-12-06T17:01:57.948Z,12.38
2022-12-06T17:05:03.053Z,14.40
2022-12-06T17:08:05.793Z,14.75
2022-12-06T17:11:35.709Z,10.82
2022-12-06T17:14:39.097Z,10.27
2022-12-06T17:17:42.822Z,13.23
2022-12-06T17:20:45.745Z,16.08
2022-12-06T17:23:48.176Z,13.73
2022-12-06T17:26:50.714Z,12.88
2022-12-06T17:29:53.218Z,15.38
2022-12-06T17:32:56.966Z,19.25
2022-12-06T17:36:04.812Z,10.40
2022-12-06T17:39:07.359Z,13.35
2022-12-06T17:42:28.807Z,11.27
2022-12-06T17:45:31.467Z,12.43
2022-12-06T17:48:38.986Z,13.15
2022-12-06T17:51:46.168Z,11.30
2022-12-06T17:54:48.576Z,12.45
2022-12-06T17:57:55.792Z,14.60
2022-12-06T18:01:01.982Z,10.63
2022-12-06T18:04:11.213Z,13.05
2022-12-06T18:07:16.364Z,13.50
2022-12-06T18:10:20.026Z,12.95
2022-12-06T18:13:23.633Z,12.88
2022-12-06T18:16:29.483Z,11.57
2022-12-06T18:19:33.564Z,11.95
2022-12-06T18:22:36.109Z,11.90
2022-12-06T18:25:38.933Z,13.82
2022-12-06T18:28:42.061Z,11.32
2022-12-06T18:31:44.576Z,11.18
2022-12-06T18:34:49.049Z,9.82
2022-12-06T18:37:51.379Z,13.30
2022-12-06T18:41:04.777Z,12.40
2022-12-06T18:44:08.312Z,11.73
2022-12-06T18:47:10.624Z,11.77
2022-12-06T18:50:14.400Z,10.43
2022-12-06T18:53:18.255Z,10.68
2022-12-06T18:56:22.995Z,10.98
2022-12-06T18:59:27.806Z,10.15
2022-12-06T19:02:30.603Z,9.65
2022-12-06T19:06:01.420Z,15.60
2022-12-06T19:08:58.019Z,14.40
2022-12-06T19:12:00.506Z,13.18
2022-12-06T19:15:02.886Z,11.82
2022-12-06T19:18:08.781Z,10.60
2022-12-06T19:21:12.996Z,13.77
2022-12-06T19:24:18.372Z,13.95
2022-12-06T19:27:20.953Z,13.27
2022-12-06T19:30:23.717Z,12.93
2022-12-06T19:33:26.828Z,15.30
2022-12-06T19:36:31.531Z,11.48
2022-12-06T19:39:34.152Z,9.60
2022-12-06T19:42:55.295Z,12.68
2022-12-06T19:46:07.968Z,13.75
2022-12-06T19:49:11.798Z,13.30
2022-12-06T19:52:15.592Z,9.82
2022-12-06T19:55:17.969Z,13.90
2022-12-06T19:58:22.836Z,10.98
2022-12-06T20:01:27.304Z,10.73
2022-12-06T20:04:31.464Z,11.55
2022-12-06T20:07:35.444Z,9.60
2022-12-06T20:10:38.884Z,12.30
2022-12-06T20:13:41.349Z,13.70
2022-12-06T20:16:44.215Z,10.52
2022-12-06T20:19:51.149Z,15.30
2022-12-06T20:22:54.934Z,13.82
2022-12-06T20:25:57.733Z,11.38
2022-12-06T20:29:00.295Z,12.95
2022-12-06T20:32:03.509Z,15.32
2022-12-06T20:35:06.288Z,17.90
2022-12-06T20:38:10.095Z,12.75
2022-12-06T20:41:13.867Z,13.88
2022-12-06T20:44:20.194Z,18.00
2022-12-06T20:47:22.641Z,13.63
2022-12-06T20:50:25.243Z,18.30
2022-12-06T20:53:29.187Z,16.10
2022-12-06T20:56:33.086Z,13.38
2022-12-06T20:59:35.683Z,16.40
2022-12-06T21:02:38.126Z,16.30
2022-12-06T21:05:44.881Z,18.27
2022-12-06T21:08:49.893Z,14.63
2022-12-06T21:11:52.257Z,16.77
2022-12-06T21:14:54.627Z,17.50
2022-12-06T21:17:58.613Z,17.13
2022-12-06T21:21:00.891Z,19.05
2022-12-06T21:24:08.137Z,19.45
2022-12-06T21:27:10.589Z,15.52
2022-12-06T21:30:13.849Z,16.13
2022-12-06T21:33:16.222Z,19.13
2022-12-06T21:36:18.750Z,20.83
2022-12-06T21:39:22.657Z,17.67
2022-12-06T21:42:26.710Z,18.63
2022-12-06T21:45:29.060Z,21.27
2022-12-06T21:48:31.675Z,19.48
2022-12-06T21:51:33.966Z,19.65
2022-12-06T21:54:37.605Z,22.27
2022-12-06T21:57:39.932Z,22.90
2022-12-06T22:00:42.254Z,16.10
2022-12-06T22:03:47.407Z,19.05
2022-12-06T22:06:49.721Z,20.42
2022-12-06T22:09:53.497Z,19.85
2022-12-06T22:12:55.777Z,23.73
2022-12-06T22:16:03.751Z,18.05
2022-12-06T22:19:06.192Z,19.95
2022-12-06T22:22:08.477Z,19.65
2022-12-06T22:25:16.436Z,23.98
2022-12-06T22:28:21.890Z,24.13
2022-12-06T22:31:25.759Z,22.00
2022-12-06T22:34:28.193Z,16.65
2022-12-06T22:37:30.535Z,20.48
2022-12-06T22:40:34.142Z,18.65
2022-12-06T22:43:37.265Z,20.70
2022-12-06T22:46:39.598Z,31.52
2022-12-06T22:49:42.005Z,25.35
2022-12-06T22:52:44.337Z,23.20
2022-12-06T22:55:48.118Z,25.23
2022-12-06T22:58:51.712Z,21.75
2022-12-06T23:01:54.003Z,23.13
2022-12-06T23:04:56.228Z,24.02
2022-12-06T23:07:58.563Z,26.38
2022-12-06T23:11:04.239Z,31.23
2022-12-06T23:14:08.013Z,25.67
2022-12-06T23:17:10.311Z,25.15
2022-12-06T23:20:13.184Z,30.63
2022-12-06T23:23:15.483Z,28.33
2022-12-06T23:26:21.122Z,28.48
2022-12-06T23:29:23.308Z,26.58
2022-12-06T23:32:25.616Z,25.98
2022-12-06T23:35:27.883Z,31.55
2022-12-06T23:38:30.396Z,27.90
2022-12-06T23:41:34.640Z,35.38
2022-12-06T23:44:38.760Z,32.85
2022-12-06T23:47:40.942Z,34.40
2022-12-06T23:50:43.358Z,38.17
2022-12-06T23:53:49.863Z,29.48
2022-12-06T23:56:53.548Z,29.95
2022-12-06T23:59:55.880Z,30.27
